Phillipsport, New York
Current Conditions -  °F | °C
As of 12:09 PM on Thursday 27 Nov 2014 (Local Time) from KMGJ Reporting Station
Light Snow Light Snow  
Wind Chill: -2°   Ceiling: 1300
Heat Index:   Visibility: 4mi
Dew Point: -2°   Wind: 5mph
Humidity: 85%   Direction: 20°NNE
Pressure: 29.98"   Gusts: NA
Location:  41.65°N, 74.44°W
Report Text: KMGJ 271709Z AUTO 02004KT 4SM -SN BR FEW006 OVC013 01/M02 A2998 RMK AO2 P0000 T00061017 TSNO $
Loading
Personal Weather Stations






























Interactive Weather Map New forecast layout! Learn more

10-Day Weather Forecast

Advertisements
Track Severe Weather on mobile